Time;durP1;ratioP1;P1;durP2;ratioP2;P2;SDS_P1;SDS_P2;PMS_P1;PMS_P2;Temp;Humidity;BMP_temperature;BMP_pressure;BME280_temperature;BME280_humidity;BME280_pressure;Samples;Min_cycle;Max_cycle;Signal;HPM_P1;HPM_P2
2022/05/13 00:02:18;;;;;;;15.30;4.95;;;15.70;99.90;;;;;;5036616;28;20022;-61
2022/05/13 00:04:45;;;;;;;10.85;4.47;;;15.80;99.90;;;;;;5033032;28;20541;-60
2022/05/13 00:07:10;;;;;;;13.77;4.68;;;15.50;99.90;;;;;;5034196;28;20379;-58
2022/05/13 00:12:20;;;;;;;13.02;4.43;;;15.70;99.90;;;;;;5033922;28;20090;-59
2022/05/13 00:14:46;;;;;;;14.23;4.43;;;15.70;99.90;;;;;;5030897;28;20772;-59
2022/05/13 00:17:12;;;;;;;12.55;4.85;;;15.60;99.90;;;;;;5036156;28;20060;-59
2022/05/13 00:19:39;;;;;;;17.35;5.35;;;15.70;99.90;;;;;;5034625;28;20037;-59
2022/05/13 00:22:05;;;;;;;12.52;4.30;;;15.70;99.90;;;;;;5034042;28;20040;-58
2022/05/13 00:24:34;;;;;;;12.15;4.80;;;15.70;99.90;;;;;;5034007;28;20440;-59
2022/05/13 00:26:59;;;;;;;13.10;4.30;;;15.70;99.90;;;;;;5029178;28;20042;-58
2022/05/13 00:29:25;;;;;;;12.70;4.85;;;15.60;99.90;;;;;;5035078;28;20492;-59
2022/05/13 00:31:51;;;;;;;16.35;4.75;;;15.50;99.90;;;;;;5034840;28;20033;-60
2022/05/13 00:34:18;;;;;;;12.55;5.07;;;15.50;99.90;;;;;;5034066;28;20518;-59
2022/05/13 00:36:44;;;;;;;13.25;5.03;;;15.60;99.90;;;;;;5033822;28;20082;-58
2022/05/13 00:39:10;;;;;;;10.57;4.60;;;15.40;99.90;;;;;;5031951;28;20033;-59
2022/05/13 00:41:36;;;;;;;14.15;5.20;;;15.50;99.90;;;;;;5032953;28;20068;-58
2022/05/13 00:44:02;;;;;;;14.50;5.05;;;15.60;99.90;;;;;;5033707;28;20101;-58
2022/05/13 00:46:29;;;;;;;14.75;4.97;;;15.50;99.90;;;;;;5034328;28;20034;-58
2022/05/13 00:48:57;;;;;;;12.82;5.30;;;15.50;99.90;;;;;;5033987;28;20048;-59
2022/05/13 00:51:38;;;;;;;12.82;5.20;;;15.60;99.90;;;;;;5033665;28;20136;-59
2022/05/13 00:54:06;;;;;;;19.95;5.30;;;15.60;99.90;;;;;;5020025;28;20052;-59
2022/05/13 00:56:32;;;;;;;16.15;5.40;;;15.70;99.90;;;;;;5037433;28;20458;-59
2022/05/13 00:59:02;;;;;;;13.52;5.03;;;15.70;99.90;;;;;;5039250;28;20036;-59
2022/05/13 01:01:29;;;;;;;14.55;5.10;;;15.60;99.90;;;;;;5037825;28;20478;-59
2022/05/13 01:04:00;;;;;;;12.73;5.10;;;15.70;99.90;;;;;;5037682;28;20095;-59
2022/05/13 01:06:26;;;;;;;16.67;5.68;;;15.70;99.90;;;;;;5037376;28;20052;-59
2022/05/13 01:08:52;;;;;;;15.38;5.38;;;15.50;99.90;;;;;;5017875;28;20034;-59
2022/05/13 01:11:22;;;;;;;13.15;5.15;;;15.50;99.90;;;;;;5039573;28;20406;-59
2022/05/13 01:13:53;;;;;;;18.80;6.28;;;15.50;99.90;;;;;;5037713;28;20029;-59
2022/05/13 01:16:19;;;;;;;13.32;5.15;;;15.40;99.90;;;;;;5037569;28;20045;-59
2022/05/13 01:18:44;;;;;;;18.73;6.10;;;15.40;99.90;;;;;;5037459;28;20057;-59
2022/05/13 01:21:18;;;;;;;13.45;5.70;;;15.40;99.90;;;;;;5033532;28;20025;-59
2022/05/13 01:23:45;;;;;;;14.40;5.53;;;15.50;99.90;;;;;;5034376;28;20037;-59
2022/05/13 01:26:15;;;;;;;14.32;5.45;;;15.60;99.90;;;;;;5039443;28;20034;-59
2022/05/13 01:28:46;;;;;;;17.13;5.65;;;15.50;99.90;;;;;;5037229;28;20025;-59
2022/05/13 01:31:19;;;;;;;16.70;6.20;;;15.50;99.90;;;;;;5037358;28;20041;-59
2022/05/13 01:33:45;;;;;;;;;;;15.40;99.90;;;;;;5037397;28;20041;-59
2022/05/13 01:36:12;;;;;;;17.48;5.90;;;15.40;99.90;;;;;;5035028;28;19916;-59
2022/05/13 01:38:40;;;;;;;18.73;5.90;;;15.20;99.90;;;;;;5034509;28;20119;-59
2022/05/13 01:41:07;;;;;;;18.17;6.10;;;15.10;99.90;;;;;;5037163;28;20028;-59
2022/05/13 01:43:33;;;;;;;15.32;5.70;;;15.20;99.90;;;;;;5035736;28;20087;-59
2022/05/13 01:46:00;;;;;;;14.88;5.38;;;15.30;99.90;;;;;;5035360;28;20043;-59
2022/05/13 01:48:27;;;;;;;15.63;5.50;;;15.20;99.90;;;;;;5036716;28;20021;-59
2022/05/13 01:50:53;;;;;;;15.63;5.40;;;15.20;99.90;;;;;;5016860;28;20036;-59
2022/05/13 01:53:19;;;;;;;13.52;5.25;;;15.10;99.90;;;;;;5038731;28;20026;-59
2022/05/13 01:55:45;;;;;;;15.27;5.70;;;15.10;99.90;;;;;;5035628;28;20449;-59
2022/05/13 01:58:12;;;;;;;13.90;5.18;;;15.10;99.90;;;;;;5036662;28;20036;-59
2022/05/13 02:00:39;;;;;;;14.80;5.30;;;14.90;99.90;;;;;;5035576;28;20029;-58
2022/05/13 02:05:49;;;;;;;15.57;5.10;;;14.90;99.90;;;;;;5031649;28;20096;-59
2022/05/13 02:08:16;;;;;;;14.30;5.00;;;14.90;99.90;;;;;;5038700;28;20586;-58
2022/05/13 02:10:45;;;;;;;14.27;4.95;;;14.90;99.90;;;;;;5036401;28;20088;-59
2022/05/13 02:13:13;;;;;;;15.27;5.40;;;15.00;99.90;;;;;;5036408;28;20029;-59
2022/05/13 02:15:38;;;;;;;17.08;5.30;;;15.00;99.90;;;;;;5036328;28;20036;-59
2022/05/13 02:18:06;;;;;;;16.52;4.72;;;14.80;99.90;;;;;;5033395;28;20021;-59
2022/05/13 02:20:32;;;;;;;18.30;4.82;;;14.80;99.90;;;;;;5035325;28;20060;-59
2022/05/13 02:22:58;;;;;;;15.63;5.00;;;14.80;99.90;;;;;;5037702;28;20447;-59
2022/05/13 02:25:24;;;;;;;13.50;4.75;;;14.70;99.90;;;;;;5036217;28;20116;-59
2022/05/13 02:27:50;;;;;;;16.98;5.03;;;14.80;99.90;;;;;;5036296;28;20426;-59
2022/05/13 02:30:16;;;;;;;13.23;4.65;;;14.90;99.90;;;;;;5034817;28;20021;-59
2022/05/13 02:32:41;;;;;;;13.40;4.68;;;14.90;99.90;;;;;;5033113;28;20041;-58
2022/05/13 02:35:08;;;;;;;14.32;4.78;;;14.90;99.90;;;;;;5038104;28;20025;-58
2022/05/13 02:37:34;;;;;;;16.80;4.88;;;14.90;99.90;;;;;;5035858;28;20046;-59
2022/05/13 02:40:00;;;;;;;13.55;4.65;;;14.80;99.90;;;;;;5034471;28;20032;-59
2022/05/13 02:42:26;;;;;;;13.80;4.85;;;14.70;99.90;;;;;;5034828;28;20025;-59
2022/05/13 02:44:52;;;;;;;14.50;4.47;;;14.70;99.90;;;;;;5031806;28;20038;-59
2022/05/13 02:47:17;;;;;;;13.05;4.65;;;14.70;99.90;;;;;;5037711;28;20057;-58
2022/05/13 02:49:43;;;;;;;11.43;4.32;;;14.70;99.90;;;;;;5035599;28;20474;-58
2022/05/13 02:52:10;;;;;;;12.65;4.53;;;14.70;99.90;;;;;;5035960;28;20033;-59
2022/05/13 02:54:36;;;;;;;16.85;4.60;;;14.70;99.90;;;;;;5035667;28;20116;-58
2022/05/13 02:57:02;;;;;;;13.05;4.65;;;14.60;99.90;;;;;;5032379;28;20025;-59
2022/05/13 02:59:28;;;;;;;12.30;4.45;;;14.60;99.90;;;;;;5035688;28;20026;-58
2022/05/13 03:01:54;;;;;;;12.82;4.93;;;14.60;99.90;;;;;;5036160;28;20025;-59
2022/05/13 03:04:21;;;;;;;11.35;4.38;;;14.70;99.90;;;;;;5034135;28;20398;-60
2022/05/13 03:06:47;;;;;;;13.77;4.25;;;14.70;99.90;;;;;;5035411;28;20041;-57
2022/05/13 03:09:12;;;;;;;15.73;4.72;;;14.60;99.90;;;;;;5033606;28;20034;-59
2022/05/13 03:11:38;;;;;;;15.45;4.68;;;14.60;99.90;;;;;;5033131;28;20087;-58
2022/05/13 03:14:04;;;;;;;17.70;4.70;;;14.50;99.90;;;;;;5035311;28;20030;-59
2022/05/13 03:16:30;;;;;;;14.50;4.78;;;14.60;99.90;;;;;;5034738;28;20045;-59
2022/05/13 03:19:02;;;;;;;14.23;4.70;;;14.60;99.90;;;;;;5033689;28;20025;-58
2022/05/13 03:21:28;;;;;;;13.38;4.78;;;14.70;99.90;;;;;;5035042;28;20470;-59
2022/05/13 03:23:54;;;;;;;14.57;4.60;;;14.60;99.90;;;;;;5030853;28;20053;-59
2022/05/13 03:26:21;;;;;;;11.85;4.43;;;14.60;99.90;;;;;;5037331;28;20061;-59
2022/05/13 03:28:48;;;;;;;13.30;4.88;;;14.50;99.90;;;;;;5034934;28;20026;-60
2022/05/13 03:31:14;;;;;;;13.98;4.47;;;14.40;99.90;;;;;;5034505;28;20033;-59
2022/05/13 03:33:40;;;;;;;15.90;4.47;;;14.50;99.90;;;;;;5034878;28;20104;-59
2022/05/13 03:36:09;;;;;;;15.85;4.32;;;14.50;99.90;;;;;;5032007;28;20454;-59
2022/05/13 03:38:35;;;;;;;14.57;4.47;;;14.40;99.90;;;;;;5033304;28;20045;-59
2022/05/13 03:41:01;;;;;;;15.98;4.68;;;14.50;99.90;;;;;;5036231;28;20082;-59
2022/05/13 03:43:26;;;;;;;13.88;4.50;;;14.40;99.90;;;;;;5033587;28;20087;-58
2022/05/13 03:45:52;;;;;;;12.57;4.38;;;14.30;99.90;;;;;;5034366;28;20029;-59
2022/05/13 03:48:18;;;;;;;13.93;4.90;;;14.30;99.90;;;;;;5033584;28;20563;-59
2022/05/13 03:50:45;;;;;;;13.23;4.57;;;14.30;99.90;;;;;;5031818;28;20410;-59
2022/05/13 03:53:11;;;;;;;14.68;4.75;;;14.40;99.90;;;;;;5036567;28;20033;-59
2022/05/13 03:55:37;;;;;;;17.08;4.60;;;14.30;99.90;;;;;;5034677;28;20496;-59
2022/05/13 03:58:04;;;;;;;11.35;4.28;;;14.30;99.90;;;;;;5033017;28;20051;-59
2022/05/13 04:00:30;;;;;;;13.35;4.78;;;14.30;99.90;;;;;;5034147;28;20378;-58
2022/05/13 04:02:57;;;;;;;13.27;4.88;;;14.30;99.90;;;;;;5030495;28;20026;-59
2022/05/13 04:10:52;;;;;;;11.25;4.38;;;14.20;99.90;;;;;;5033589;28;20087;-59
2022/05/13 04:16:06;;;;;;;10.82;4.70;;;14.30;99.90;;;;;;5034005;28;20037;-59
2022/05/13 04:18:35;;;;;;;17.60;5.50;;;14.20;99.90;;;;;;5034385;28;20489;-59
2022/05/13 04:21:04;;;;;;;14.38;4.95;;;14.30;99.90;;;;;;5030983;28;20029;-59
2022/05/13 04:23:31;;;;;;;11.77;4.68;;;14.20;99.90;;;;;;5034073;28;20033;-59
2022/05/13 04:25:56;;;;;;;15.27;4.80;;;14.20;99.90;;;;;;5035479;28;20037;-58
2022/05/13 04:28:22;;;;;;;12.98;4.88;;;14.10;99.90;;;;;;5036543;28;20037;-58
2022/05/13 04:30:47;;;;;;;12.02;4.75;;;14.10;99.90;;;;;;5038008;28;20068;-58
2022/05/13 04:33:14;;;;;;;11.25;4.40;;;14.10;99.90;;;;;;5036764;28;20037;-59
2022/05/13 04:35:40;;;;;;;12.15;4.75;;;14.10;99.90;;;;;;5036056;28;20037;-58
2022/05/13 04:38:07;;;;;;;17.83;5.47;;;14.00;99.90;;;;;;5038427;28;20041;-59
2022/05/13 04:40:33;;;;;;;15.25;5.50;;;14.00;99.90;;;;;;5038389;28;20021;-59
2022/05/13 04:43:00;;;;;;;15.30;5.55;;;14.10;99.90;;;;;;5038102;28;20037;-59
2022/05/13 04:45:28;;;;;;;24.58;5.97;;;14.10;99.90;;;;;;5037666;28;20031;-59
2022/05/13 04:48:15;;;;;;;23.50;5.75;;;14.00;99.90;;;;;;5034209;28;20034;-59
2022/05/13 04:50:44;;;;;;;18.15;5.95;;;14.00;99.90;;;;;;5034965;28;20014;-59
2022/05/13 04:53:10;;;;;;;17.27;5.68;;;14.10;99.90;;;;;;5039937;28;20025;-60
2022/05/13 04:55:37;;;;;;;20.65;5.30;;;14.10;99.90;;;;;;5037414;28;20033;-59
2022/05/13 04:58:03;;;;;;;17.08;5.70;;;14.20;99.90;;;;;;5037804;28;20032;-57
2022/05/13 05:00:30;;;;;;;15.98;5.20;;;14.30;99.90;;;;;;5036423;28;20452;-59
2022/05/13 05:02:56;;;;;;;17.58;5.40;;;14.30;99.90;;;;;;5033708;28;20057;-59
2022/05/13 05:05:22;;;;;;;16.27;5.13;;;14.20;99.90;;;;;;5029933;28;20022;-58
2022/05/13 05:07:48;;;;;;;19.10;5.60;;;14.10;99.90;;;;;;5025620;28;20045;-60
2022/05/13 05:10:14;;;;;;;15.25;5.95;;;14.10;99.90;;;;;;5031556;28;20517;-58
2022/05/13 05:12:40;;;;;;;14.55;5.15;;;14.00;99.90;;;;;;5032118;28;20068;-58
2022/05/13 05:15:08;;;;;;;13.95;5.78;;;14.10;99.90;;;;;;5032631;28;20022;-59
2022/05/13 05:17:33;;;;;;;14.48;5.63;;;14.10;99.90;;;;;;5031486;28;20457;-59
2022/05/13 05:19:59;;;;;;;12.30;5.05;;;14.20;99.90;;;;;;5032669;28;20022;-58
2022/05/13 05:22:25;;;;;;;13.80;5.53;;;14.10;99.90;;;;;;5031953;28;20072;-59
2022/05/13 05:24:50;;;;;;;14.70;5.70;;;14.20;99.90;;;;;;5037288;28;20490;-59
2022/05/13 05:27:16;;;;;;;15.98;5.75;;;14.20;99.90;;;;;;5034778;28;20029;-59
2022/05/13 05:29:44;;;;;;;12.30;5.53;;;14.10;99.90;;;;;;5033712;28;20052;-59
2022/05/13 05:32:10;;;;;;;13.32;5.35;;;14.10;99.90;;;;;;5039163;28;20402;-59
2022/05/13 05:34:36;;;;;;;17.67;5.88;;;14.10;99.90;;;;;;5036959;28;20021;-59
2022/05/13 05:37:02;;;;;;;25.33;6.38;;;14.20;99.90;;;;;;5036960;28;20045;-58
2022/05/13 05:39:27;;;;;;;20.40;5.90;;;14.10;99.90;;;;;;5035010;28;20032;-59
2022/05/13 05:41:53;;;;;;;15.60;5.70;;;14.20;99.90;;;;;;5032177;28;20435;-59
2022/05/13 05:44:19;;;;;;;17.05;5.47;;;14.20;99.90;;;;;;5045939;28;20079;-59
2022/05/13 05:46:44;;;;;;;14.48;5.25;;;14.20;99.90;;;;;;5036854;28;20037;-58
2022/05/13 05:49:10;;;;;;;16.50;5.50;;;14.20;99.90;;;;;;5036987;28;20481;-59
2022/05/13 05:51:37;;;;;;;11.45;5.53;;;14.20;99.90;;;;;;5037332;28;20033;-57
2022/05/13 05:59:32;;;;;;;14.48;5.43;;;14.40;99.90;;;;;;5047126;28;20031;-59
2022/05/13 06:01:58;;;;;;;17.42;5.68;;;14.40;99.90;;;;;;5038039;28;20096;-59
2022/05/13 06:04:24;;;;;;;15.90;5.30;;;14.40;99.90;;;;;;5036896;28;20387;-58
2022/05/13 06:06:50;;;;;;;15.75;5.63;;;14.40;99.90;;;;;;5036599;28;20029;-59
2022/05/13 06:09:15;;;;;;;16.42;5.57;;;14.50;99.90;;;;;;5035204;28;20450;-59
2022/05/13 06:11:41;;;;;;;18.23;6.30;;;14.50;99.90;;;;;;5033606;28;20029;-60
2022/05/13 06:14:09;;;;;;;15.88;6.05;;;14.70;99.90;;;;;;5038460;28;20029;-58
2022/05/13 06:16:35;;;;;;;15.02;6.15;;;14.70;99.90;;;;;;5036434;28;20037;-58
2022/05/13 06:19:02;;;;;;;13.02;5.50;;;14.70;99.90;;;;;;5035409;28;20045;-57
2022/05/13 06:21:33;;;;;;;14.43;5.78;;;14.80;99.90;;;;;;5036321;28;20033;-58
2022/05/13 06:23:59;;;;;;;19.92;5.20;;;14.90;99.90;;;;;;5032469;28;20534;-58
2022/05/13 06:26:25;;;;;;;20.08;5.53;;;15.00;99.90;;;;;;5036758;28;20026;-58
2022/05/13 06:28:51;;;;;;;16.33;5.35;;;14.90;99.90;;;;;;5036434;28;20052;-57
2022/05/13 06:31:18;;;;;;;18.25;5.63;;;15.00;99.90;;;;;;5036173;28;20152;-57
2022/05/13 06:33:45;;;;;;;13.90;4.70;;;15.10;99.90;;;;;;5034684;28;20102;-57
2022/05/13 06:36:12;;;;;;;12.13;5.22;;;15.30;99.90;;;;;;5034080;28;20033;-58
2022/05/13 06:38:38;;;;;;;17.08;4.68;;;15.30;99.90;;;;;;5031391;28;20049;-57
2022/05/13 06:41:04;;;;;;;16.20;5.07;;;15.30;99.90;;;;;;5035635;28;20124;-57
2022/05/13 06:43:30;;;;;;;17.08;5.40;;;15.40;99.90;;;;;;5035592;28;20104;-57
2022/05/13 06:45:56;;;;;;;14.50;4.88;;;15.40;99.90;;;;;;5035531;28;20387;-58
2022/05/13 06:48:22;;;;;;;10.73;4.60;;;15.50;99.90;;;;;;5035188;28;20047;-59
2022/05/13 06:50:48;;;;;;;11.52;4.32;;;15.50;99.90;;;;;;5030837;28;20036;-58
2022/05/13 06:53:19;;;;;;;12.65;4.20;;;15.50;99.90;;;;;;5037112;28;20490;-64
2022/05/13 06:55:45;;;;;;;13.73;4.32;;;15.50;99.90;;;;;;5035178;28;20026;-58
2022/05/13 06:58:14;;;;;;;16.30;4.43;;;15.70;99.90;;;;;;5035099;28;20032;-57
2022/05/13 07:00:41;;;;;;;8.52;4.07;;;15.90;99.90;;;;;;5035392;28;20107;-58
2022/05/13 07:03:10;;;;;;;14.43;3.95;;;15.90;99.90;;;;;;5033256;28;20407;-59
2022/05/13 07:05:36;;;;;;;10.18;3.67;;;16.00;99.90;;;;;;5033641;28;20376;-59
2022/05/13 07:08:01;;;;;;;12.20;3.42;;;16.10;99.90;;;;;;5036926;28;20116;-59
2022/05/13 07:10:27;;;;;;;9.68;3.13;;;16.40;99.90;;;;;;5034938;28;20034;-59
2022/05/13 07:12:53;;;;;;;11.38;3.30;;;16.50;99.90;;;;;;5033563;28;20052;-59
2022/05/13 07:15:20;;;;;;;10.73;3.10;;;16.50;99.90;;;;;;5034271;28;20108;-59
2022/05/13 07:17:47;;;;;;;12.68;3.53;;;16.40;99.90;;;;;;5030297;28;20095;-59
2022/05/13 07:20:15;;;;;;;9.85;3.30;;;16.80;99.90;;;;;;5037155;28;20060;-59
2022/05/13 07:22:41;;;;;;;8.98;2.80;;;17.20;99.90;;;;;;5034861;28;20113;-59
2022/05/13 07:25:07;;;;;;;8.38;2.85;;;17.40;99.90;;;;;;5035107;28;20104;-59
2022/05/13 07:27:33;;;;;;;9.25;2.90;;;17.30;99.90;;;;;;5034858;28;20049;-59
2022/05/13 07:29:59;;;;;;;9.57;3.05;;;17.00;99.90;;;;;;5031350;28;20025;-60
2022/05/13 07:32:25;;;;;;;12.80;3.50;;;17.20;99.90;;;;;;5035898;28;20033;-59
2022/05/13 07:34:51;;;;;;;10.93;3.25;;;17.70;99.90;;;;;;5035150;28;20029;-60
2022/05/13 07:37:16;;;;;;;14.63;3.38;;;17.90;99.90;;;;;;5034976;28;20046;-59
2022/05/13 07:42:26;;;;;;;9.82;2.42;;;18.20;99.90;;;;;;5035087;28;20119;-59
2022/05/13 07:44:52;;;;;;;8.52;2.80;;;18.30;99.90;;;;;;5030693;28;20460;-60
2022/05/13 07:47:19;;;;;;;10.63;2.70;;;18.90;99.90;;;;;;5036418;28;20124;-60
2022/05/13 07:49:45;;;;;;;10.43;2.83;;;19.00;99.90;;;;;;5034675;28;20387;-59
2022/05/13 07:52:11;;;;;;;12.90;3.03;;;18.90;99.90;;;;;;5032786;28;20053;-59
2022/05/13 07:54:37;;;;;;;10.60;2.85;;;18.80;99.90;;;;;;5034537;28;20517;-59
2022/05/13 07:57:04;;;;;;;7.68;2.72;;;20.00;99.90;;;;;;5031910;28;20025;-59
2022/05/13 07:59:32;;;;;;;10.02;2.80;;;21.10;99.90;;;;;;5034402;28;20032;-60
2022/05/13 08:01:58;;;;;;;8.38;2.78;;;21.80;99.90;;;;;;5035433;28;20021;-60
2022/05/13 08:04:25;;;;;;;7.07;2.30;;;22.80;99.90;;;;;;5034390;28;20029;-60
2022/05/13 08:06:51;;;;;;;7.53;2.35;;;23.50;99.90;;;;;;5033917;28;20033;-59
2022/05/13 08:09:17;;;;;;;9.82;2.67;;;22.80;99.90;;;;;;5033111;28;20040;-60
2022/05/13 08:11:44;;;;;;;6.47;2.20;;;23.30;99.90;;;;;;5031648;28;20025;-60
2022/05/13 08:14:10;;;;;;;8.38;2.40;;;24.30;99.90;;;;;;5036208;28;20108;-60
2022/05/13 08:16:36;;;;;;;7.38;2.80;;;24.50;99.90;;;;;;5034262;28;20112;-60
2022/05/13 08:19:04;;;;;;;7.95;2.20;;;24.50;99.90;;;;;;5034723;28;20029;-60
2022/05/13 08:21:30;;;;;;;6.53;2.10;;;24.80;99.90;;;;;;5034030;28;20049;-60
2022/05/13 08:23:56;;;;;;;6.57;2.40;;;24.90;99.90;;;;;;5029939;28;20021;-60
2022/05/13 08:26:22;;;;;;;4.82;1.77;;;24.80;99.90;;;;;;5036232;28;20112;-60
2022/05/13 08:28:48;;;;;;;8.98;2.25;;;23.50;99.90;;;;;;5034151;28;20125;-60
2022/05/13 08:31:14;;;;;;;7.25;2.05;;;24.20;99.70;;;;;;5032803;28;20041;-60
2022/05/13 08:33:40;;;;;;;8.02;2.38;;;23.80;99.90;;;;;;5033966;28;20394;-60
2022/05/13 08:36:06;;;;;;;6.50;2.08;;;23.40;99.90;;;;;;5030848;28;20108;-60
2022/05/13 08:38:36;;;;;;;5.15;2.10;;;23.30;99.90;;;;;;5033233;28;20052;-60
2022/05/13 08:41:32;;;;;;;6.85;2.00;;;24.40;99.90;;;;;;5035724;28;20040;-60
2022/05/13 08:44:01;;;;;;;5.25;1.80;;;25.90;98.20;;;;;;5035172;28;20430;-60
2022/05/13 08:46:38;;;;;;;5.82;2.00;;;25.90;97.00;;;;;;5034250;28;20034;-60
2022/05/13 08:49:23;;;;;;;6.03;2.03;;;26.90;96.60;;;;;;5034028;28;20026;-60
2022/05/13 08:51:55;;;;;;;5.38;2.05;;;25.90;95.90;;;;;;5033669;28;20105;-60
2022/05/13 08:54:26;;;;;;;3.97;1.45;;;26.70;95.20;;;;;;5033171;28;20021;-60
2022/05/13 08:56:56;;;;;;;3.33;1.63;;;27.60;93.60;;;;;;5030057;28;20026;-60
2022/05/13 08:59:31;;;;;;;4.03;1.45;;;27.40;94.10;;;;;;5043081;28;20482;-60
2022/05/13 09:02:17;;;;;;;3.20;1.75;;;27.60;93.20;;;;;;5034608;28;20037;-60
2022/05/13 09:04:47;;;;;;;2.42;1.38;;;29.10;90.90;;;;;;5033449;28;20017;-60
2022/05/13 09:07:19;;;;;;;6.18;1.38;;;28.60;92.80;;;;;;5033772;28;20045;-59
2022/05/13 09:09:51;;;;;;;3.80;1.73;;;28.20;91.80;;;;;;5032483;28;20549;-60
2022/05/13 09:12:28;;;;;;;3.20;1.40;;;27.70;91.70;;;;;;5032469;28;20371;-60
2022/05/13 09:15:02;;;;;;;2.00;1.13;;;27.10;92.80;;;;;;5016903;28;20030;-61
2022/05/13 09:17:35;;;;;;;1.98;1.10;;;28.20;92.30;;;;;;5047592;28;20037;-59
2022/05/13 09:20:07;;;;;;;3.58;1.15;;;29.30;92.50;;;;;;5038597;28;20057;-60
2022/05/13 09:22:52;;;;;;;1.48;0.95;;;28.00;90.70;;;;;;5036971;28;20029;-60
2022/05/13 09:25:33;;;;;;;3.00;1.33;;;27.40;91.90;;;;;;5037666;28;20425;-60
2022/05/13 09:28:06;;;;;;;3.30;1.40;;;28.70;91.70;;;;;;5036931;28;20060;-60
2022/05/13 09:30:38;;;;;;;3.38;1.40;;;25.70;93.30;;;;;;5037745;28;20031;-60
2022/05/13 09:33:30;;;;;;;2.78;1.38;;;26.30;93.20;;;;;;5034224;28;20017;-61
2022/05/13 09:36:01;;;;;;;3.90;1.27;;;28.80;91.20;;;;;;5017124;28;20026;-60
2022/05/13 09:38:40;;;;;;;3.75;1.40;;;26.70;92.80;;;;;;5037356;28;20060;-60
2022/05/13 09:41:09;;;;;;;2.47;1.48;;;28.40;92.50;;;;;;5037146;28;20025;-61
2022/05/13 09:43:41;;;;;;;2.80;1.30;;;28.20;92.30;;;;;;5036988;28;20029;-61
2022/05/13 09:46:22;;;;;;;2.88;1.50;;;29.00;91.60;;;;;;5037085;28;20406;-60
2022/05/13 09:48:58;;;;;;;6.38;1.50;;;28.70;90.20;;;;;;5034930;28;20048;-60
2022/05/13 09:51:35;;;;;;;3.70;1.50;;;27.80;91.90;;;;;;5035669;28;20102;-60
2022/05/13 09:54:20;;;;;;;4.22;1.83;;;29.10;91.90;;;;;;5018332;28;20523;-60
2022/05/13 09:56:48;;;;;;;4.18;1.80;;;26.50;91.80;;;;;;5033250;28;20083;-59
2022/05/13 09:59:21;;;;;;;3.10;1.40;;;26.70;93.40;;;;;;5038724;28;20571;-60
2022/05/13 10:01:47;;;;;;;2.53;1.60;;;27.70;91.80;;;;;;5036689;28;20489;-60
2022/05/13 10:04:19;;;;;;;4.72;1.70;;;29.40;91.10;;;;;;5036297;28;20384;-60
2022/05/13 10:06:44;;;;;;;2.55;1.60;;;29.30;91.50;;;;;;5036491;28;20405;-60
2022/05/13 10:15:14;;;;;;;3.97;1.70;;;29.10;90.50;;;;;;5021322;28;20033;-60
2022/05/13 10:17:48;;;;;;;3.53;1.52;;;28.20;91.70;;;;;;5033676;28;20022;-60
2022/05/13 10:20:27;;;;;;;2.42;1.85;;;27.60;92.50;;;;;;5038359;28;20406;-60
2022/05/13 10:23:17;;;;;;;2.85;1.70;;;27.40;92.10;;;;;;5035671;28;20513;-60
2022/05/13 10:26:24;;;;;;;3.28;1.88;;;27.50;92.50;;;;;;5035120;28;20021;-60
2022/05/13 10:29:19;;;;;;;3.00;1.67;;;27.90;92.20;;;;;;5035058;28;20103;-60
2022/05/13 10:31:47;;;;;;;3.45;1.60;;;26.70;93.00;;;;;;5035693;28;20394;-60
2022/05/13 10:34:35;;;;;;;3.53;1.70;;;26.60;93.40;;;;;;5036026;28;20021;-60
2022/05/13 10:37:16;;;;;;;2.95;1.95;;;26.70;93.10;;;;;;5035940;28;20060;-60
2022/05/13 10:40:02;;;;;;;3.67;1.70;;;25.40;94.50;;;;;;5035862;28;20041;-60
2022/05/13 10:42:36;;;;;;;2.58;2.00;;;26.30;93.80;;;;;;5035983;28;20461;-60
2022/05/13 10:45:17;;;;;;;3.10;1.70;;;26.70;93.10;;;;;;5032437;28;20028;-60
2022/05/13 10:48:01;;;;;;;2.90;1.70;;;27.00;93.00;;;;;;5032386;28;20091;-60
2022/05/13 10:51:01;;;;;;;2.70;1.70;;;27.20;92.80;;;;;;5045641;28;20029;-60
2022/05/13 10:53:26;;;;;;;2.92;1.80;;;27.00;93.20;;;;;;5045330;28;20482;-60
2022/05/13 10:55:59;;;;;;;3.15;1.80;;;27.20;93.10;;;;;;5035165;28;20049;-60
2022/05/13 10:59:05;;;;;;;3.63;1.75;;;27.00;92.20;;;;;;5035451;28;20091;-61
2022/05/13 11:01:59;;;;;;;4.65;1.80;;;27.50;92.60;;;;;;5035301;28;20048;-60
2022/05/13 11:04:39;;;;;;;;;;;28.20;91.40;;;;;;5035893;28;20172;-60
2022/05/13 11:07:05;;;;;;;3.17;1.90;;;26.20;92.60;;;;;;5034033;28;19923;-60
2022/05/13 11:09:59;;;;;;;2.80;1.75;;;25.90;92.80;;;;;;5035268;28;20058;-60
2022/05/13 11:12:53;;;;;;;3.55;2.00;;;27.20;93.50;;;;;;5034824;28;20036;-61
2022/05/13 11:15:21;;;;;;;3.75;1.80;;;28.00;91.60;;;;;;5021877;28;20021;-60
2022/05/13 11:18:09;;;;;;;4.80;1.77;;;27.80;93.00;;;;;;5031683;28;20072;-60
2022/05/13 11:20:59;;;;;;;3.47;1.85;;;27.70;91.40;;;;;;5045230;28;20052;-60
2022/05/13 11:23:37;;;;;;;4.07;2.00;;;27.80;92.30;;;;;;5044762;28;20021;-61
2022/05/13 11:26:13;;;;;;;3.97;1.90;;;28.60;91.90;;;;;;5036530;28;20022;-60
2022/05/13 11:29:04;;;;;;;3.10;1.90;;;28.70;91.40;;;;;;5034853;28;20486;-60
2022/05/13 11:31:56;;;;;;;3.53;1.95;;;28.40;90.80;;;;;;5034676;28;20029;-60
2022/05/13 11:35:02;;;;;;;4.03;2.00;;;28.10;91.50;;;;;;5035004;28;20053;-60
2022/05/13 11:37:33;;;;;;;3.50;1.98;;;28.00;92.10;;;;;;5034579;28;20136;-60
2022/05/13 11:40:08;;;;;;;3.58;2.40;;;27.30;92.80;;;;;;5034687;28;20032;-60
2022/05/13 11:46:00;;;;;;;6.75;2.13;;;28.80;91.70;;;;;;5033078;28;20036;-61
2022/05/13 11:48:41;;;;;;;4.65;1.85;;;28.40;92.20;;;;;;5034813;28;20033;-60
2022/05/13 11:51:15;;;;;;;2.63;1.67;;;28.20;92.30;;;;;;5018015;28;20036;-60
2022/05/13 11:53:41;;;;;;;4.45;1.88;;;28.90;91.60;;;;;;5031954;28;20056;-61
2022/05/13 11:56:43;;;;;;;5.45;2.25;;;28.10;91.20;;;;;;5036433;28;20034;-60
2022/05/13 11:59:30;;;;;;;3.30;1.80;;;28.90;92.20;;;;;;5010263;28;20046;-61
2022/05/13 12:02:07;;;;;;;4.93;2.00;;;29.10;91.20;;;;;;5009944;28;20052;-61
2022/05/13 12:04:37;;;;;;;4.82;2.00;;;29.30;90.60;;;;;;5009813;28;20108;-61
2022/05/13 12:07:28;;;;;;;3.55;1.85;;;28.70;92.70;;;;;;5009170;28;20046;-61
2022/05/13 12:09:55;;;;;;;4.90;2.20;;;28.10;96.50;;;;;;4970659;28;20050;-60
2022/05/13 12:12:39;;;;;;;3.30;2.00;;;27.20;98.40;;;;;;4970540;28;20035;-61
2022/05/13 12:15:11;;;;;;;3.70;2.00;;;28.00;99.10;;;;;;4970203;28;20034;-60
2022/05/13 12:17:41;;;;;;;3.42;2.05;;;28.10;97.50;;;;;;4970702;28;20069;-60
2022/05/13 12:20:15;;;;;;;3.55;1.85;;;28.70;97.50;;;;;;4955912;28;20047;-60
2022/05/13 12:23:02;;;;;;;3.95;2.38;;;27.70;97.80;;;;;;4969414;28;20448;-60
2022/05/13 12:25:36;;;;;;;5.72;2.10;;;26.40;99.60;;;;;;4970193;28;20062;-61
2022/05/13 12:28:21;;;;;;;4.82;2.00;;;27.90;99.90;;;;;;4969686;28;20512;-60
2022/05/13 12:30:52;;;;;;;6.47;2.40;;;28.30;99.50;;;;;;4970277;28;20037;-60
2022/05/13 12:33:23;;;;;;;4.25;2.38;;;27.30;99.90;;;;;;4970226;28;20055;-60
2022/05/13 12:39:06;;;;;;;4.50;2.60;;;25.30;97.70;;;;;;5022726;28;20472;-60
2022/05/13 12:41:43;;;;;;;4.78;2.40;;;26.00;97.90;;;;;;5021561;28;20069;-60
2022/05/13 12:44:32;;;;;;;5.13;2.50;;;25.80;97.30;;;;;;5012177;28;20113;-60
2022/05/13 12:47:17;;;;;;;5.22;2.30;;;26.90;96.30;;;;;;5024874;28;20054;-60
2022/05/13 12:49:48;;;;;;;5.68;2.60;;;26.20;96.30;;;;;;5037313;28;20021;-61
2022/05/13 12:52:14;;;;;;;4.25;2.10;;;25.50;98.00;;;;;;5037860;28;20032;-60
2022/05/13 12:55:07;;;;;;;3.83;2.25;;;27.20;96.80;;;;;;5036449;28;20115;-60
2022/05/13 12:57:37;;;;;;;3.78;2.25;;;26.30;98.00;;;;;;5012837;28;20128;-60
2022/05/13 13:00:08;;;;;;;5.40;2.22;;;26.90;97.10;;;;;;5012925;28;20034;-60
2022/05/13 13:02:34;;;;;;;2.92;2.25;;;26.30;97.20;;;;;;5012880;28;20038;-61
2022/05/13 13:05:06;;;;;;;5.57;2.28;;;27.30;97.70;;;;;;5013334;28;20494;-61
2022/05/13 13:07:35;;;;;;;3.40;2.30;;;27.00;97.30;;;;;;5012577;28;20049;-60
2022/05/13 13:10:01;;;;;;;5.60;2.50;;;26.90;97.30;;;;;;5012953;28;20073;-60
2022/05/13 13:12:30;;;;;;;3.78;2.40;;;27.50;97.20;;;;;;5012335;28;20128;-60
2022/05/13 13:15:11;;;;;;;7.53;2.50;;;27.60;98.30;;;;;;4996232;28;20030;-60
2022/05/13 13:17:53;;;;;;;8.38;2.30;;;27.80;98.50;;;;;;5010454;28;20038;-60
2022/05/13 13:20:21;;;;;;;5.70;2.40;;;27.80;97.70;;;;;;5012733;28;20038;-60
2022/05/13 13:22:51;;;;;;;5.32;2.30;;;27.60;98.20;;;;;;5012686;28;20399;-60
2022/05/13 13:25:17;;;;;;;5.90;2.20;;;27.60;98.00;;;;;;5012386;28;20030;-60
2022/05/13 13:27:43;;;;;;;6.82;2.30;;;28.00;96.90;;;;;;5011939;28;20570;-61
2022/05/13 13:30:17;;;;;;;4.30;2.38;;;27.70;98.70;;;;;;4995911;28;20394;-60
2022/05/13 13:32:48;;;;;;;6.05;2.38;;;27.70;97.10;;;;;;5012237;28;20038;-61